createdAt,value
2022-11-18T00:01:10.093Z,6.38
2022-11-18T00:03:38.205Z,6.65
2022-11-18T00:06:06.226Z,5.72
2022-11-18T00:08:34.236Z,5.78
2022-11-18T00:11:46.314Z,9.15
2022-11-18T00:14:19.531Z,6.40
2022-11-18T00:16:50.886Z,6.18
2022-11-18T00:19:19.501Z,5.13
2022-11-18T00:21:46.662Z,9.45
2022-11-18T00:24:13.517Z,5.80
2022-11-18T00:26:40.387Z,5.93
2022-11-18T00:29:09.080Z,7.68
2022-11-18T00:31:35.967Z,5.65
2022-11-18T00:34:02.833Z,7.82
2022-11-18T00:36:29.842Z,7.00
2022-11-18T00:38:56.728Z,6.50
2022-11-18T00:41:23.774Z,5.85
2022-11-18T00:43:50.617Z,6.00
2022-11-18T00:46:17.417Z,8.35
2022-11-18T00:48:44.344Z,11.52
2022-11-18T00:51:16.901Z,7.00
2022-11-18T00:53:44.327Z,6.93
2022-11-18T00:56:11.544Z,9.00
2022-11-18T00:58:38.330Z,6.82
2022-11-18T01:01:05.485Z,7.47
2022-11-18T01:03:32.549Z,7.10
2022-11-18T01:05:59.512Z,9.43
2022-11-18T01:08:26.368Z,7.72
2022-11-18T01:10:53.770Z,11.32
2022-11-18T01:13:23.797Z,9.10
2022-11-18T01:15:55.847Z,8.00
2022-11-18T01:18:28.224Z,7.85
2022-11-18T01:21:00.913Z,9.55
2022-11-18T01:23:27.843Z,9.68
2022-11-18T01:25:55.195Z,9.25
2022-11-18T01:28:24.160Z,6.88
2022-11-18T01:30:51.663Z,7.53
2022-11-18T01:33:18.544Z,8.77
2022-11-18T01:35:45.694Z,9.55
2022-11-18T01:38:14.222Z,9.93
2022-11-18T01:40:42.066Z,8.27
2022-11-18T01:43:17.683Z,8.00
2022-11-18T01:45:46.879Z,6.78
2022-11-18T01:48:21.361Z,9.90
2022-11-18T01:53:25.829Z,8.82
2022-11-18T01:55:55.720Z,6.43
2022-11-18T01:58:27.545Z,5.97
2022-11-18T02:00:54.749Z,6.20
2022-11-18T02:03:22.628Z,5.55
2022-11-18T02:05:50.852Z,5.40
2022-11-18T02:08:19.195Z,5.97
2022-11-18T02:10:46.036Z,7.15
2022-11-18T02:13:13.576Z,9.05
2022-11-18T02:16:15.803Z,6.78
2022-11-18T02:18:55.340Z,6.50
2022-11-18T02:21:22.172Z,9.23
2022-11-18T02:24:01.563Z,8.98
2022-11-18T02:26:50.215Z,8.07
2022-11-18T02:29:26.848Z,9.60
2022-11-18T02:31:56.658Z,9.05
2022-11-18T02:34:50.801Z,11.55
2022-11-18T02:38:02.777Z,11.33
2022-11-18T02:40:34.893Z,9.65
2022-11-18T02:43:07.533Z,9.70
2022-11-18T02:45:37.116Z,12.10
2022-11-18T02:48:09.308Z,13.48
2022-11-18T02:50:38.640Z,9.65
2022-11-18T02:53:08.659Z,12.63
2022-11-18T02:55:38.208Z,11.32
2022-11-18T02:58:06.392Z,10.57
2022-11-18T03:00:33.928Z,10.95
2022-11-18T03:03:00.987Z,14.05
2022-11-18T03:05:40.228Z,15.23
2022-11-18T03:26:34.527Z,16.05
2022-11-18T03:29:08.177Z,16.42
2022-11-18T03:31:40.776Z,16.13
2022-11-18T03:34:28.548Z,15.02
2022-11-18T03:37:01.177Z,14.15
2022-11-18T03:39:32.600Z,13.45
2022-11-18T03:42:08.823Z,12.70
2022-11-18T03:44:39.117Z,12.73
2022-11-18T03:47:15.017Z,13.82
2022-11-18T03:49:52.061Z,14.50
2022-11-18T03:52:23.512Z,11.60
2022-11-18T03:54:54.591Z,9.73
2022-11-18T03:57:26.018Z,13.00
2022-11-18T04:00:03.320Z,11.95
2022-11-18T04:02:32.031Z,9.77
2022-11-18T04:05:01.151Z,10.50
2022-11-18T04:07:36.852Z,10.88
2022-11-18T04:10:50.336Z,13.05
2022-11-18T04:13:28.341Z,14.15
2022-11-18T04:15:55.828Z,15.05
2022-11-18T04:18:23.099Z,15.48
2022-11-18T04:20:50.023Z,15.48
2022-11-18T04:23:16.778Z,11.85
2022-11-18T04:25:43.649Z,10.00
2022-11-18T04:28:10.659Z,15.85
2022-11-18T04:30:37.527Z,9.65
2022-11-18T04:33:05.239Z,9.93
2022-11-18T04:35:32.194Z,6.25
2022-11-18T04:37:58.984Z,8.80
2022-11-18T04:40:25.841Z,16.98
2022-11-18T04:42:52.679Z,7.15
2022-11-18T04:45:19.508Z,8.18
2022-11-18T04:47:46.399Z,7.93
2022-11-18T04:50:13.223Z,8.00
2022-11-18T04:52:40.020Z,6.55
2022-11-18T04:55:07.087Z,8.35
2022-11-18T04:57:33.959Z,10.18
2022-11-18T05:00:00.828Z,9.52
2022-11-18T05:02:27.607Z,12.13
2022-11-18T05:04:54.376Z,16.65
2022-11-18T05:07:21.305Z,12.15
2022-11-18T05:09:48.132Z,20.25
2022-11-18T05:12:33.818Z,17.17
2022-11-18T05:15:00.985Z,25.05
2022-11-18T05:17:27.921Z,37.33
2022-11-18T05:19:54.821Z,29.73
2022-11-18T05:22:21.700Z,18.30
2022-11-18T05:24:49.175Z,16.73
2022-11-18T05:27:16.405Z,15.52
2022-11-18T05:29:43.590Z,28.63
2022-11-18T05:32:11.010Z,15.18
2022-11-18T05:34:39.177Z,9.52
2022-11-18T05:37:06.039Z,16.02
2022-11-18T05:39:33.903Z,11.38
2022-11-18T05:42:19.909Z,14.73
2022-11-18T05:44:47.052Z,9.32
2022-11-18T05:47:14.095Z,5.00
2022-11-18T05:49:40.928Z,11.23
2022-11-18T05:52:07.866Z,14.50
2022-11-18T05:54:34.839Z,7.40
2022-11-18T05:57:01.770Z,6.70
2022-11-18T05:59:28.986Z,8.05
2022-11-18T06:02:02.047Z,12.75
2022-11-18T06:04:38.150Z,8.07
2022-11-18T06:07:13.358Z,10.20
2022-11-18T06:09:45.083Z,8.48
2022-11-18T06:12:15.661Z,10.90
2022-11-18T06:14:48.693Z,6.32
2022-11-18T06:17:20.579Z,9.63
2022-11-18T06:19:47.598Z,27.02
2022-11-18T06:22:14.704Z,18.08
2022-11-18T06:24:43.476Z,20.08
2022-11-18T06:27:11.075Z,25.15
2022-11-18T06:29:37.950Z,22.13
2022-11-18T06:32:04.885Z,17.80
2022-11-18T06:34:33.613Z,25.92
2022-11-18T06:37:18.043Z,19.38
2022-11-18T06:39:44.886Z,10.80
2022-11-18T06:42:11.946Z,12.82
2022-11-18T06:44:38.769Z,15.55
2022-11-18T06:47:05.816Z,16.98
2022-11-18T06:49:32.655Z,12.10
2022-11-18T06:51:59.554Z,12.05
2022-11-18T06:54:26.441Z,7.75
2022-11-18T06:56:53.379Z,10.98
2022-11-18T06:59:23.958Z,7.47
2022-11-18T07:01:53.446Z,12.35
2022-11-18T07:04:20.957Z,8.07
2022-11-18T07:06:47.872Z,5.78
2022-11-18T07:09:14.919Z,7.35
2022-11-18T07:11:42.084Z,11.02
2022-11-18T07:14:09.782Z,7.35
2022-11-18T07:16:37.079Z,7.70
2022-11-18T07:19:10.448Z,14.68
2022-11-18T07:21:38.168Z,6.97
2022-11-18T07:24:07.772Z,11.48
2022-11-18T07:26:35.778Z,9.90
2022-11-18T07:29:02.681Z,20.00
2022-11-18T07:31:29.577Z,15.13
2022-11-18T07:33:56.622Z,12.10
2022-11-18T07:36:29.656Z,16.00
2022-11-18T07:39:00.965Z,9.20
2022-11-18T07:41:29.866Z,10.48
2022-11-18T07:44:00.841Z,17.45
2022-11-18T07:46:32.111Z,12.65
2022-11-18T07:49:01.365Z,13.50
2022-11-18T07:51:30.776Z,12.25
2022-11-18T07:53:57.702Z,10.88
2022-11-18T07:56:25.005Z,10.07
2022-11-18T07:58:56.047Z,9.82
2022-11-18T08:01:25.507Z,10.32
2022-11-18T08:03:52.481Z,10.98
2022-11-18T08:06:19.701Z,7.85
2022-11-18T08:08:47.320Z,6.50
2022-11-18T08:11:22.770Z,6.13
2022-11-18T08:13:51.728Z,5.55
2022-11-18T08:16:21.215Z,6.78
2022-11-18T08:18:48.819Z,3.78
2022-11-18T08:21:17.664Z,5.07
2022-11-18T08:23:50.074Z,5.78
2022-11-18T08:26:17.244Z,8.85
2022-11-18T08:28:44.835Z,8.30
2022-11-18T08:31:14.192Z,8.15
2022-11-18T08:33:43.783Z,7.68
2022-11-18T08:36:15.155Z,8.88
2022-11-18T08:38:42.148Z,6.40
2022-11-18T08:41:13.950Z,5.60
2022-11-18T08:43:40.901Z,3.97
2022-11-18T08:46:07.700Z,5.18
2022-11-18T08:48:34.742Z,5.30
2022-11-18T08:51:02.594Z,5.68
2022-11-18T08:53:29.580Z,4.88
2022-11-18T08:56:00.982Z,6.40
2022-11-18T08:58:28.104Z,4.38
2022-11-18T09:00:55.437Z,5.70
2022-11-18T09:03:22.956Z,5.35
2022-11-18T09:05:50.291Z,6.38
2022-11-18T09:08:17.206Z,8.63
2022-11-18T09:10:44.072Z,6.85
2022-11-18T09:13:53.328Z,5.40
2022-11-18T09:16:01.934Z,8.77
2022-11-18T09:18:29.812Z,6.70
2022-11-18T09:20:58.994Z,7.93
2022-11-18T09:23:26.048Z,6.43
2022-11-18T09:26:07.895Z,7.72
2022-11-18T09:28:35.287Z,7.35
2022-11-18T09:31:08.108Z,7.97
2022-11-18T09:33:36.093Z,5.83
2022-11-18T09:36:02.994Z,7.05
2022-11-18T09:38:31.084Z,6.60
2022-11-18T09:41:09.782Z,5.68
2022-11-18T09:43:55.375Z,7.65
2022-11-18T09:46:57.139Z,9.15
2022-11-18T09:49:34.096Z,8.27
2022-11-18T09:52:27.539Z,8.75
2022-11-18T09:54:58.422Z,6.32
2022-11-18T09:57:39.883Z,6.15
2022-11-18T10:00:24.641Z,6.22
2022-11-18T10:03:01.906Z,8.23
2022-11-18T10:05:44.642Z,9.68
2022-11-18T10:08:35.697Z,7.03
2022-11-18T10:11:18.172Z,8.55
2022-11-18T10:13:59.968Z,10.35
2022-11-18T10:16:33.233Z,6.68
2022-11-18T10:19:12.409Z,7.15
2022-11-18T10:21:51.446Z,6.22
2022-11-18T10:24:30.524Z,8.55
2022-11-18T10:26:59.515Z,10.45
2022-11-18T10:29:27.287Z,5.88
2022-11-18T10:32:13.731Z,8.50
2022-11-18T10:35:23.021Z,9.68
2022-11-18T10:38:14.701Z,6.75
2022-11-18T10:41:15.475Z,7.22
2022-11-18T10:43:49.624Z,8.63
2022-11-18T10:46:24.170Z,8.10
2022-11-18T10:49:09.272Z,10.10
2022-11-18T10:51:45.188Z,11.18
2022-11-18T10:54:15.386Z,7.60
2022-11-18T10:56:58.377Z,10.10
2022-11-18T10:59:39.094Z,10.37
2022-11-18T11:02:32.508Z,11.68
2022-11-18T11:05:02.657Z,10.63
2022-11-18T11:07:35.265Z,9.18
2022-11-18T11:10:23.630Z,9.52
2022-11-18T11:13:00.014Z,9.98
2022-11-18T11:15:41.806Z,9.55
2022-11-18T11:18:42.183Z,10.18
2022-11-18T11:21:17.045Z,8.82
2022-11-18T11:23:44.828Z,7.72
2022-11-18T11:29:19.400Z,7.47
2022-11-18T11:32:29.485Z,10.85
2022-11-18T11:35:07.384Z,10.98
2022-11-18T11:37:55.687Z,8.48
2022-11-18T11:40:34.891Z,8.80
2022-11-18T11:43:20.600Z,11.13
2022-11-18T11:46:09.125Z,10.18
2022-11-18T11:49:05.892Z,10.00
2022-11-18T11:51:33.445Z,10.27
2022-11-18T11:54:09.435Z,8.02
2022-11-18T11:56:50.125Z,10.07
2022-11-18T11:59:39.799Z,10.23
2022-11-18T12:02:44.735Z,11.98
2022-11-18T12:05:40.604Z,9.32
2022-11-18T12:08:13.713Z,8.90
2022-11-18T12:11:02.426Z,9.87
2022-11-18T12:13:53.383Z,9.90
2022-11-18T12:16:39.053Z,12.43
2022-11-18T12:19:13.801Z,10.07
2022-11-18T12:21:46.594Z,14.75
2022-11-18T12:24:34.341Z,12.90
2022-11-18T12:27:10.368Z,12.10
2022-11-18T12:29:49.315Z,13.25
2022-11-18T12:32:48.719Z,13.63
2022-11-18T12:35:15.493Z,17.88
2022-11-18T12:37:51.366Z,15.32
2022-11-18T12:40:37.920Z,15.35
2022-11-18T12:43:29.950Z,16.10
2022-11-18T12:45:58.494Z,15.30
2022-11-18T12:48:33.311Z,16.85
2022-11-18T12:51:31.090Z,13.48
2022-11-18T12:53:58.190Z,16.27
2022-11-18T12:56:27.944Z,15.23
2022-11-18T12:58:57.402Z,19.30
2022-11-18T13:01:29.578Z,15.68
2022-11-18T13:04:13.610Z,13.88
2022-11-18T13:06:40.988Z,18.17
2022-11-18T13:09:30.319Z,19.30
2022-11-18T13:12:17.036Z,19.30
2022-11-18T13:15:03.889Z,24.15
2022-11-18T13:17:53.018Z,23.23
2022-11-18T13:20:24.678Z,21.75
2022-11-18T13:23:15.409Z,21.05
2022-11-18T13:25:45.836Z,22.42
2022-11-18T13:28:18.380Z,23.00
2022-11-18T13:31:13.828Z,26.58
2022-11-18T13:33:40.961Z,24.02
2022-11-18T13:36:22.960Z,25.45
2022-11-18T13:38:58.315Z,28.70
2022-11-18T13:41:32.796Z,24.15
2022-11-18T13:44:17.892Z,25.52
2022-11-18T13:46:47.848Z,21.98
2022-11-18T13:49:19.904Z,26.73
2022-11-18T13:51:47.350Z,26.48
2022-11-18T13:54:22.097Z,30.80
2022-11-18T13:56:48.988Z,30.95
2022-11-18T13:59:20.176Z,31.77
2022-11-18T14:01:52.837Z,33.22
2022-11-18T14:04:25.529Z,33.38
2022-11-18T14:06:52.464Z,36.53
2022-11-18T14:09:27.348Z,39.10
2022-11-18T14:12:20.259Z,38.67
2022-11-18T14:14:47.932Z,36.20
2022-11-18T14:17:24.746Z,44.60
2022-11-18T14:19:54.537Z,44.45
2022-11-18T14:22:27.144Z,42.17
2022-11-18T14:25:20.158Z,36.90
2022-11-18T14:27:51.965Z,34.05
2022-11-18T14:30:39.957Z,35.45
2022-11-18T14:33:24.288Z,38.85
2022-11-18T14:35:55.656Z,39.05
2022-11-18T14:38:57.513Z,36.65
2022-11-18T14:41:44.447Z,32.15
2022-11-18T14:44:13.617Z,37.55
2022-11-18T14:46:42.677Z,33.83
2022-11-18T14:49:22.191Z,35.42
2022-11-18T14:51:50.697Z,33.13
2022-11-18T14:54:25.573Z,40.47
2022-11-18T14:57:00.556Z,32.88
2022-11-18T14:59:27.699Z,36.55
2022-11-18T15:01:55.013Z,41.38
2022-11-18T15:04:22.388Z,39.20
2022-11-18T15:06:49.445Z,33.40
2022-11-18T15:09:16.816Z,34.88
2022-11-18T15:27:40.162Z,36.85
2022-11-18T15:30:07.929Z,34.53
2022-11-18T15:32:34.810Z,34.25
2022-11-18T15:35:01.764Z,37.45
2022-11-18T15:37:28.639Z,32.70
2022-11-18T15:39:55.550Z,38.72
2022-11-18T15:42:23.624Z,36.80
2022-11-18T15:44:50.505Z,33.20
2022-11-18T15:47:17.407Z,36.58
2022-11-18T15:49:45.488Z,33.92
2022-11-18T15:52:12.877Z,36.83
2022-11-18T15:54:39.789Z,35.10
2022-11-18T15:57:06.587Z,35.15
2022-11-18T15:59:33.496Z,35.60
2022-11-18T16:02:00.269Z,33.38
2022-11-18T16:04:27.412Z,23.45
2022-11-18T16:06:54.401Z,25.48
2022-11-18T16:09:21.788Z,26.98
2022-11-18T16:12:23.898Z,27.40
2022-11-18T16:15:10.679Z,29.65
2022-11-18T16:17:37.675Z,26.38
2022-11-18T16:20:04.843Z,25.60
2022-11-18T16:22:32.135Z,17.73
2022-11-18T16:24:58.974Z,19.30
2022-11-18T16:27:25.846Z,18.23
2022-11-18T16:29:52.690Z,16.42
2022-11-18T16:32:19.609Z,13.18
2022-11-18T16:34:46.491Z,21.13
2022-11-18T16:37:13.277Z,16.23
2022-11-18T16:39:40.118Z,20.38
2022-11-18T16:42:08.686Z,17.77
2022-11-18T16:44:37.144Z,21.40
2022-11-18T16:47:10.538Z,19.77
2022-11-18T16:49:40.938Z,20.67
2022-11-18T16:52:08.208Z,23.55
2022-11-18T16:54:38.242Z,23.58
2022-11-18T16:57:09.021Z,22.77
2022-11-18T16:59:35.817Z,25.15
2022-11-18T17:02:03.208Z,24.95
2022-11-18T17:04:30.752Z,28.95
2022-11-18T17:07:01.017Z,29.95
2022-11-18T17:09:28.107Z,23.15
2022-11-18T17:11:55.851Z,26.95
2022-11-18T17:14:23.546Z,37.95
2022-11-18T17:16:51.195Z,30.33
2022-11-18T17:19:21.182Z,26.60
2022-11-18T17:21:48.957Z,29.88
2022-11-18T17:24:18.389Z,32.17
2022-11-18T17:26:45.897Z,29.20
2022-11-18T17:29:13.367Z,30.10
2022-11-18T17:31:41.510Z,32.40
2022-11-18T17:34:13.166Z,26.88
2022-11-18T17:36:40.060Z,31.20
2022-11-18T17:39:07.397Z,21.75
2022-11-18T17:42:09.789Z,23.75
2022-11-18T17:44:36.711Z,21.20
2022-11-18T17:47:03.732Z,24.05
2022-11-18T17:49:30.900Z,28.35
2022-11-18T17:51:57.817Z,38.42
2022-11-18T17:54:24.632Z,18.00
2022-11-18T17:56:54.510Z,22.33
2022-11-18T17:59:23.101Z,22.00
2022-11-18T18:01:54.453Z,22.25
2022-11-18T18:04:24.355Z,23.00
2022-11-18T18:06:52.947Z,24.55
2022-11-18T18:09:22.871Z,26.73
2022-11-18T18:11:53.711Z,22.20
2022-11-18T18:14:21.073Z,25.45
2022-11-18T18:16:50.236Z,22.13
2022-11-18T18:19:19.433Z,23.55
2022-11-18T18:21:46.786Z,19.35
2022-11-18T18:24:16.497Z,18.25
2022-11-18T18:26:43.678Z,21.73
2022-11-18T18:29:11.828Z,18.52
2022-11-18T18:31:38.820Z,25.73
2022-11-18T18:34:05.818Z,28.83
2022-11-18T18:36:33.029Z,28.55
2022-11-18T18:39:01.031Z,31.42
2022-11-18T18:41:27.940Z,26.10
2022-11-18T18:43:54.801Z,27.38
2022-11-18T18:46:31.414Z,28.35
2022-11-18T18:49:10.328Z,22.77
2022-11-18T18:51:45.482Z,21.17
2022-11-18T18:54:15.764Z,25.85
2022-11-18T18:56:43.572Z,23.38
2022-11-18T18:59:11.241Z,25.33
2022-11-18T19:01:39.062Z,25.33
2022-11-18T19:04:07.668Z,21.80
2022-11-18T19:06:58.931Z,24.45
2022-11-18T19:09:25.043Z,17.75
2022-11-18T19:12:11.740Z,28.60
2022-11-18T19:14:38.750Z,20.70
2022-11-18T19:17:10.588Z,37.75
2022-11-18T19:19:59.283Z,22.63
2022-11-18T19:22:28.643Z,29.33
2022-11-18T19:24:55.878Z,23.50
2022-11-18T19:27:23.537Z,22.52
2022-11-18T19:29:50.398Z,21.65
2022-11-18T19:32:17.365Z,25.73
2022-11-18T19:34:44.284Z,30.17
2022-11-18T19:37:11.339Z,21.40
2022-11-18T19:39:38.688Z,25.38
2022-11-18T19:42:05.883Z,20.13
2022-11-18T19:44:32.793Z,22.55
2022-11-18T19:46:59.677Z,20.80
2022-11-18T19:49:26.439Z,21.30
2022-11-18T19:51:53.387Z,15.88
2022-11-18T19:54:20.888Z,14.57
2022-11-18T19:56:47.791Z,16.75
2022-11-18T19:59:14.659Z,17.48
2022-11-18T20:01:41.865Z,20.38
2022-11-18T20:04:08.922Z,15.25
2022-11-18T20:06:37.048Z,19.80
2022-11-18T20:09:08.003Z,14.80
2022-11-18T20:11:35.077Z,16.25
2022-11-18T20:14:02.054Z,21.50
2022-11-18T20:16:28.938Z,18.50
2022-11-18T20:18:59.057Z,14.23
2022-11-18T20:21:27.861Z,13.63
2022-11-18T20:24:05.181Z,17.30
2022-11-18T20:26:37.394Z,12.85
2022-11-18T20:29:06.304Z,16.42
2022-11-18T20:31:35.540Z,10.35
2022-11-18T20:34:03.636Z,16.58
2022-11-18T20:36:36.031Z,11.60
2022-11-18T20:39:07.683Z,10.68
2022-11-18T20:41:36.471Z,11.52
2022-11-18T20:44:04.059Z,10.05
2022-11-18T20:46:31.221Z,14.52
2022-11-18T20:48:57.943Z,14.63
2022-11-18T20:51:29.292Z,16.65
2022-11-18T20:53:58.669Z,9.73
2022-11-18T20:56:27.159Z,8.93
2022-11-18T20:58:55.816Z,8.75
2022-11-18T21:01:25.531Z,12.15
2022-11-18T21:03:54.947Z,14.02
2022-11-18T21:06:24.116Z,12.00
2022-11-18T21:08:58.709Z,10.85
2022-11-18T21:11:26.287Z,9.18
2022-11-18T21:14:11.708Z,12.07
2022-11-18T21:16:40.452Z,10.70
2022-11-18T21:19:07.535Z,15.07
2022-11-18T21:21:48.001Z,14.77
2022-11-18T21:24:17.571Z,9.15
2022-11-18T21:26:46.724Z,14.95
2022-11-18T21:29:15.731Z,12.98
2022-11-18T21:31:43.903Z,8.80
2022-11-18T21:34:11.625Z,13.98
2022-11-18T21:36:45.611Z,13.27
2022-11-18T21:39:15.012Z,10.32
2022-11-18T21:41:44.651Z,18.95
2022-11-18T21:44:13.327Z,15.80
2022-11-18T21:46:42.714Z,14.95
2022-11-18T21:49:09.869Z,13.48
2022-11-18T21:51:37.026Z,16.02
2022-11-18T21:54:04.533Z,12.00
2022-11-18T21:56:32.328Z,12.13
2022-11-18T21:59:01.517Z,12.07
2022-11-18T22:01:31.149Z,11.35
2022-11-18T22:03:59.730Z,12.98
2022-11-18T22:06:29.896Z,12.95
2022-11-18T22:08:57.955Z,12.48
2022-11-18T22:11:26.034Z,13.48
2022-11-18T22:13:53.543Z,12.95
2022-11-18T22:16:23.315Z,12.73
2022-11-18T22:18:56.608Z,15.68
2022-11-18T22:21:26.507Z,16.25
2022-11-18T22:23:58.024Z,11.63
2022-11-18T22:26:25.100Z,13.63
2022-11-18T22:28:57.124Z,12.93
2022-11-18T22:31:25.795Z,14.20
2022-11-18T22:33:54.148Z,12.32
2022-11-18T22:36:23.219Z,17.42
2022-11-18T22:38:50.693Z,17.63
2022-11-18T22:41:37.522Z,12.10
2022-11-18T22:44:08.082Z,14.20
2022-11-18T22:46:36.180Z,14.57
2022-11-18T22:49:04.287Z,10.18
2022-11-18T22:51:31.453Z,13.75
2022-11-18T22:54:22.955Z,12.25
2022-11-18T22:56:47.517Z,15.75
2022-11-18T22:59:19.309Z,15.70
2022-11-18T23:01:46.354Z,11.63
2022-11-18T23:04:13.180Z,15.40
2022-11-18T23:06:40.004Z,16.42
2022-11-18T23:09:06.795Z,18.83
2022-11-18T23:11:52.131Z,12.68
2022-11-18T23:14:18.916Z,13.43
2022-11-18T23:16:45.964Z,14.00
2022-11-18T23:19:14.852Z,14.20
2022-11-18T23:21:42.269Z,15.80
2022-11-18T23:24:14.331Z,12.30
2022-11-18T23:26:42.425Z,13.75
2022-11-18T23:29:10.820Z,17.45
2022-11-18T23:31:42.953Z,17.50
2022-11-18T23:34:12.051Z,11.32
2022-11-18T23:36:39.607Z,15.15
2022-11-18T23:39:06.685Z,10.30
2022-11-18T23:41:33.554Z,17.35
2022-11-18T23:44:00.385Z,15.77
2022-11-18T23:46:27.828Z,12.77
2022-11-18T23:48:54.995Z,14.20
2022-11-18T23:51:24.200Z,12.60
2022-11-18T23:53:57.574Z,12.68
2022-11-18T23:56:27.055Z,19.85
2022-11-18T23:58:55.415Z,14.30
